createdAt,value
2018-02-05T00:00:54.512Z,958.91
2018-02-05T00:01:54.450Z,958.84
2018-02-05T00:02:54.389Z,958.87
2018-02-05T00:03:54.326Z,958.85
2018-02-05T00:04:54.264Z,958.86
2018-02-05T00:05:54.200Z,958.86
2018-02-05T00:06:54.138Z,958.88
2018-02-05T00:07:54.075Z,958.87
2018-02-05T00:08:54.014Z,958.89
2018-02-05T00:09:53.951Z,958.89
2018-02-05T00:10:53.891Z,958.84
2018-02-05T00:11:53.825Z,958.82
2018-02-05T00:12:53.764Z,958.84
2018-02-05T00:13:53.703Z,958.85
2018-02-05T00:14:53.639Z,958.88
2018-02-05T00:15:53.574Z,958.91
2018-02-05T00:16:53.514Z,958.93
2018-02-05T00:17:53.452Z,958.94
2018-02-05T00:18:53.391Z,958.95
2018-02-05T00:19:53.325Z,958.96
2018-02-05T00:20:53.267Z,959.03
2018-02-05T00:21:53.201Z,959.00
2018-02-05T00:22:53.140Z,959.03
2018-02-05T00:23:53.077Z,959.03
2018-02-05T00:24:53.014Z,959.02
2018-02-05T00:25:52.951Z,959.01
2018-02-05T00:26:52.890Z,959.05
2018-02-05T00:27:52.827Z,958.99
2018-02-05T00:28:52.763Z,958.99
2018-02-05T00:29:52.701Z,958.98
2018-02-05T00:30:52.639Z,959.01
2018-02-05T00:31:52.575Z,959.00
2018-02-05T00:32:52.514Z,959.01
2018-02-05T00:33:52.456Z,958.94
2018-02-05T00:34:52.400Z,958.95
2018-02-05T00:35:52.327Z,959.01
2018-02-05T00:36:52.263Z,958.98
2018-02-05T00:37:52.202Z,958.91
2018-02-05T00:38:52.139Z,958.90
2018-02-05T00:39:52.081Z,958.94
2018-02-05T00:40:52.014Z,958.97
2018-02-05T00:41:51.951Z,959.06
2018-02-05T00:42:51.890Z,959.03
2018-02-05T00:43:51.825Z,959.03
2018-02-05T00:44:51.764Z,959.08
2018-02-05T00:45:51.700Z,959.09
2018-02-05T00:46:51.639Z,959.08
2018-02-05T00:47:51.575Z,959.06
2018-02-05T00:48:51.513Z,959.12
2018-02-05T00:49:51.451Z,959.10
2018-02-05T00:50:51.390Z,959.16
2018-02-05T00:51:51.327Z,959.13
2018-02-05T00:52:51.264Z,959.13
2018-02-05T00:53:51.201Z,959.09
2018-02-05T00:54:51.140Z,959.15
2018-02-05T00:55:51.075Z,959.15
2018-02-05T00:56:51.014Z,959.16
2018-02-05T00:57:50.955Z,959.14
2018-02-05T00:58:50.884Z,959.15
2018-02-05T00:59:50.824Z,959.16
2018-02-05T01:00:50.761Z,959.15
2018-02-05T01:01:50.702Z,959.11
2018-02-05T01:02:50.644Z,959.15
2018-02-05T01:03:50.575Z,959.14
2018-02-05T01:04:50.512Z,959.17
2018-02-05T01:05:50.450Z,959.16
2018-02-05T01:06:50.387Z,959.18
2018-02-05T01:07:50.325Z,959.21
2018-02-05T01:08:50.263Z,959.17
2018-02-05T01:09:50.204Z,959.19
2018-02-05T01:10:50.136Z,959.17
2018-02-05T01:11:50.076Z,959.20
2018-02-05T01:12:50.013Z,959.24
2018-02-05T01:13:49.948Z,959.24
2018-02-05T01:14:49.888Z,959.23
2018-02-05T01:15:49.823Z,959.26
2018-02-05T01:16:49.762Z,959.30
2018-02-05T01:17:49.698Z,959.28
2018-02-05T01:18:49.636Z,959.32
2018-02-05T01:19:49.573Z,959.31
2018-02-05T01:20:49.560Z,959.36
2018-02-05T01:21:49.448Z,959.31
2018-02-05T01:22:49.385Z,959.31
2018-02-05T01:23:49.323Z,959.30
2018-02-05T01:24:49.263Z,959.27
2018-02-05T01:25:49.199Z,959.22
2018-02-05T01:26:49.137Z,959.19
2018-02-05T01:27:49.074Z,959.24
2018-02-05T01:28:49.013Z,959.19
2018-02-05T01:29:48.948Z,959.19
2018-02-05T01:30:48.886Z,959.22
2018-02-05T01:31:48.823Z,959.18
2018-02-05T01:32:48.760Z,959.19
2018-02-05T01:33:48.697Z,959.17
2018-02-05T01:34:48.637Z,959.17
2018-02-05T01:35:48.573Z,959.17
2018-02-05T01:36:48.512Z,959.15
2018-02-05T01:37:48.448Z,959.13
2018-02-05T01:38:48.386Z,959.12
2018-02-05T01:39:48.324Z,959.09
2018-02-05T01:40:48.264Z,959.11
2018-02-05T01:41:48.199Z,959.12
2018-02-05T01:42:48.137Z,959.07
2018-02-05T01:43:48.073Z,959.10
2018-02-05T01:44:48.011Z,959.14
2018-02-05T01:45:47.950Z,959.12
2018-02-05T01:46:47.886Z,959.08
2018-02-05T01:47:47.825Z,959.04
2018-02-05T01:48:47.763Z,959.04
2018-02-05T01:49:47.700Z,959.05
2018-02-05T01:50:47.638Z,959.03
2018-02-05T01:51:47.574Z,959.02
2018-02-05T01:52:47.511Z,959.06
2018-02-05T01:53:47.450Z,959.04
2018-02-05T01:54:47.386Z,959.12
2018-02-05T01:55:47.325Z,959.15
2018-02-05T01:56:47.260Z,959.14
2018-02-05T01:57:47.201Z,959.13
2018-02-05T01:58:47.138Z,959.10
2018-02-05T01:59:47.074Z,959.06
2018-02-05T02:00:47.013Z,959.02
2018-02-05T02:01:46.949Z,959.01
2018-02-05T02:02:46.888Z,958.97
2018-02-05T02:03:46.830Z,959.00
2018-02-05T02:04:46.762Z,958.96
2018-02-05T02:05:46.701Z,958.97
2018-02-05T02:06:46.648Z,958.90
2018-02-05T02:07:46.575Z,958.93
2018-02-05T02:08:46.517Z,958.95
2018-02-05T02:09:46.450Z,958.91
2018-02-05T02:10:46.388Z,958.94
2018-02-05T02:11:46.323Z,958.93
2018-02-05T02:12:46.287Z,958.95
2018-02-05T02:13:46.199Z,958.97
2018-02-05T02:14:46.138Z,958.99
2018-02-05T02:15:46.073Z,959.02
2018-02-05T02:16:46.010Z,959.00
2018-02-05T02:17:45.948Z,959.03
2018-02-05T02:18:45.889Z,959.04
2018-02-05T02:19:45.823Z,959.07
2018-02-05T02:20:45.760Z,959.05
2018-02-05T02:21:45.702Z,959.07
2018-02-05T02:22:45.636Z,959.15
2018-02-05T02:23:45.572Z,959.16
2018-02-05T02:24:45.510Z,959.15
2018-02-05T02:25:45.450Z,959.17
2018-02-05T02:26:45.387Z,959.19
2018-02-05T02:27:45.323Z,959.22
2018-02-05T02:28:45.261Z,959.22
2018-02-05T02:29:45.199Z,959.21
2018-02-05T02:30:45.140Z,959.25
2018-02-05T02:31:45.072Z,959.26
2018-02-05T02:32:45.012Z,959.22
2018-02-05T02:33:44.949Z,959.23
2018-02-05T02:34:44.888Z,959.24
2018-02-05T02:35:44.822Z,959.24
2018-02-05T02:36:44.761Z,959.21
2018-02-05T02:37:44.698Z,959.21
2018-02-05T02:38:44.638Z,959.21
2018-02-05T02:39:44.573Z,959.17
2018-02-05T02:40:44.511Z,959.16
2018-02-05T02:41:44.450Z,959.11
2018-02-05T02:42:44.389Z,959.11
2018-02-05T02:43:44.325Z,959.07
2018-02-05T02:44:44.263Z,959.06
2018-02-05T02:45:44.198Z,959.01
2018-02-05T02:46:44.137Z,959.04
2018-02-05T02:47:44.076Z,958.94
2018-02-05T02:48:44.012Z,958.96
2018-02-05T02:49:43.952Z,958.95
2018-02-05T02:50:43.888Z,958.96
2018-02-05T02:51:43.825Z,959.00
2018-02-05T02:52:43.762Z,958.99
2018-02-05T02:53:43.700Z,959.05
2018-02-05T02:54:43.638Z,959.04
2018-02-05T02:55:43.577Z,959.00
2018-02-05T02:56:43.513Z,959.05
2018-02-05T02:57:43.452Z,959.07
2018-02-05T02:58:43.389Z,959.05
2018-02-05T02:59:43.328Z,959.04
2018-02-05T03:00:43.266Z,959.03
2018-02-05T03:01:43.202Z,959.02
2018-02-05T03:02:43.142Z,959.01
2018-02-05T03:03:43.077Z,959.07
2018-02-05T03:04:43.016Z,959.07
2018-02-05T03:05:42.956Z,959.06
2018-02-05T03:06:42.892Z,959.08
2018-02-05T03:07:42.828Z,959.07
2018-02-05T03:08:42.773Z,959.10
2018-02-05T03:09:42.705Z,959.05
2018-02-05T03:10:42.642Z,959.08
2018-02-05T03:11:42.577Z,959.06
2018-02-05T03:12:42.517Z,959.13
2018-02-05T03:13:42.454Z,959.13
2018-02-05T03:14:42.392Z,959.18
2018-02-05T03:15:42.340Z,959.13
2018-02-05T03:16:42.266Z,959.14
2018-02-05T03:17:42.207Z,959.22
2018-02-05T03:18:42.143Z,959.23
2018-02-05T03:19:42.079Z,959.21
2018-02-05T03:20:42.018Z,959.21
2018-02-05T03:21:41.955Z,959.20
2018-02-05T03:22:41.895Z,959.23
2018-02-05T03:23:41.831Z,959.24
2018-02-05T03:24:41.770Z,959.25
2018-02-05T03:25:41.713Z,959.22
2018-02-05T03:26:41.643Z,959.25
2018-02-05T03:27:41.586Z,959.22
2018-02-05T03:28:41.519Z,959.20
2018-02-05T03:29:41.457Z,959.28
2018-02-05T03:30:41.396Z,959.22
2018-02-05T03:31:41.333Z,959.28
2018-02-05T03:32:41.268Z,959.24
2018-02-05T03:33:41.210Z,959.24
2018-02-05T03:34:41.146Z,959.22
2018-02-05T03:35:41.081Z,959.23
2018-02-05T03:36:41.019Z,959.23
2018-02-05T03:37:40.959Z,959.23
2018-02-05T03:38:40.897Z,959.25
2018-02-05T03:39:40.835Z,959.23
2018-02-05T03:40:40.771Z,959.25
2018-02-05T03:41:40.708Z,959.24
2018-02-05T03:42:40.646Z,959.27
2018-02-05T03:43:40.584Z,959.26
2018-02-05T03:44:40.523Z,959.28
2018-02-05T03:45:40.460Z,959.25
2018-02-05T03:46:40.398Z,959.30
2018-02-05T03:47:40.336Z,959.30
2018-02-05T03:48:40.276Z,959.36
2018-02-05T03:49:40.210Z,959.33
2018-02-05T03:50:40.151Z,959.36
2018-02-05T03:51:40.090Z,959.33
2018-02-05T03:52:40.024Z,959.40
2018-02-05T03:53:39.963Z,959.36
2018-02-05T03:54:39.901Z,959.36
2018-02-05T03:55:39.834Z,959.34
2018-02-05T03:56:39.772Z,959.35
2018-02-05T03:57:39.709Z,959.35
2018-02-05T03:58:39.651Z,959.32
2018-02-05T03:59:39.584Z,959.34
2018-02-05T04:00:39.522Z,959.33
2018-02-05T04:01:39.460Z,959.35
2018-02-05T04:02:39.398Z,959.38
2018-02-05T04:03:39.334Z,959.40
2018-02-05T04:04:39.273Z,959.32
2018-02-05T04:05:39.211Z,959.34
2018-02-05T04:06:39.151Z,959.34
2018-02-05T04:07:39.085Z,959.28
2018-02-05T04:08:39.024Z,959.31
2018-02-05T04:09:38.960Z,959.32
2018-02-05T04:10:38.898Z,959.34
2018-02-05T04:11:38.837Z,959.35
2018-02-05T04:12:38.775Z,959.38
2018-02-05T04:13:38.711Z,959.37
2018-02-05T04:14:38.646Z,959.35
2018-02-05T04:15:38.585Z,959.36
2018-02-05T04:16:38.522Z,959.41
2018-02-05T04:17:38.460Z,959.41
2018-02-05T04:18:38.403Z,959.42
2018-02-05T04:19:38.333Z,959.46
2018-02-05T04:20:38.272Z,959.47
2018-02-05T04:21:38.211Z,959.46
2018-02-05T04:22:38.147Z,959.48
2018-02-05T04:23:38.084Z,959.45
2018-02-05T04:24:38.025Z,959.45
2018-02-05T04:25:37.961Z,959.43
2018-02-05T04:26:37.896Z,959.42
2018-02-05T04:27:37.838Z,959.41
2018-02-05T04:28:37.773Z,959.46
2018-02-05T04:29:37.708Z,959.46
2018-02-05T04:30:37.647Z,959.44
2018-02-05T04:31:37.583Z,959.50
2018-02-05T04:32:37.522Z,959.51
2018-02-05T04:33:37.458Z,959.50
2018-02-05T04:34:37.396Z,959.48
2018-02-05T04:35:37.332Z,959.47
2018-02-05T04:36:37.271Z,959.45
2018-02-05T04:37:37.209Z,959.45
2018-02-05T04:38:37.146Z,959.48
2018-02-05T04:39:37.084Z,959.47
2018-02-05T04:40:37.021Z,959.47
2018-02-05T04:41:36.959Z,959.48
2018-02-05T04:42:36.897Z,959.47
2018-02-05T04:43:36.834Z,959.46
2018-02-05T04:44:36.773Z,959.46
2018-02-05T04:45:36.710Z,959.47
2018-02-05T04:46:36.650Z,959.49
2018-02-05T04:47:36.581Z,959.49
2018-02-05T04:48:36.520Z,959.56
2018-02-05T04:49:36.457Z,959.58
2018-02-05T04:50:36.397Z,959.56
2018-02-05T04:51:36.333Z,959.60
2018-02-05T04:52:36.268Z,959.61
2018-02-05T04:53:36.207Z,959.57
2018-02-05T04:54:36.145Z,959.55
2018-02-05T04:55:36.084Z,959.57
2018-02-05T04:56:36.018Z,959.59
2018-02-05T04:57:35.957Z,959.61
2018-02-05T04:58:35.897Z,959.58
2018-02-05T04:59:35.831Z,959.57
2018-02-05T05:00:35.768Z,959.55
2018-02-05T05:01:35.704Z,959.57
2018-02-05T05:02:35.645Z,959.58
2018-02-05T05:03:35.580Z,959.56
2018-02-05T05:04:35.517Z,959.54
2018-02-05T05:05:35.447Z,959.56
2018-02-05T05:06:35.393Z,959.53
2018-02-05T05:07:35.329Z,959.55
2018-02-05T05:08:35.266Z,959.48
2018-02-05T05:09:35.203Z,959.50
2018-02-05T05:10:35.140Z,959.51
2018-02-05T05:11:35.076Z,959.55
2018-02-05T05:12:35.014Z,959.51
2018-02-05T05:13:34.960Z,959.51
2018-02-05T05:14:34.893Z,959.53
2018-02-05T05:15:34.828Z,959.51
2018-02-05T05:16:34.763Z,959.52
2018-02-05T05:17:34.701Z,959.50
2018-02-05T05:18:34.637Z,959.48
2018-02-05T05:19:34.575Z,959.49
2018-02-05T05:20:34.512Z,959.47
2018-02-05T05:21:34.450Z,959.50
2018-02-05T05:22:34.386Z,959.50
2018-02-05T05:23:34.323Z,959.48
2018-02-05T05:24:34.259Z,959.42
2018-02-05T05:25:34.196Z,959.43
2018-02-05T05:26:34.139Z,959.45
2018-02-05T05:27:34.070Z,959.45
2018-02-05T05:28:34.008Z,959.45
2018-02-05T05:29:33.946Z,959.39
2018-02-05T05:30:33.889Z,959.38
2018-02-05T05:31:33.817Z,959.38
2018-02-05T05:32:33.756Z,959.40
2018-02-05T05:33:33.693Z,959.34
2018-02-05T05:34:33.630Z,959.33
2018-02-05T05:35:33.565Z,959.29
2018-02-05T05:36:33.506Z,959.32
2018-02-05T05:37:33.440Z,959.29
2018-02-05T05:38:33.378Z,959.34
2018-02-05T05:39:33.315Z,959.37
2018-02-05T05:40:33.252Z,959.36
2018-02-05T05:41:33.190Z,959.39
2018-02-05T05:42:33.149Z,959.42
2018-02-05T05:43:33.064Z,959.45
2018-02-05T05:44:33.000Z,959.50
2018-02-05T05:45:32.934Z,959.41
2018-02-05T05:46:32.875Z,959.44
2018-02-05T05:47:32.813Z,959.48
2018-02-05T05:48:32.760Z,959.48
2018-02-05T05:49:32.693Z,959.45
2018-02-05T05:50:32.634Z,959.47
2018-02-05T05:51:32.566Z,959.47
2018-02-05T05:52:32.498Z,959.45
2018-02-05T05:53:32.432Z,959.45
2018-02-05T05:54:32.371Z,959.47
2018-02-05T05:55:32.307Z,959.43
2018-02-05T05:56:32.244Z,959.49
2018-02-05T05:57:32.180Z,959.43
2018-02-05T05:58:32.118Z,959.56
2018-02-05T05:59:32.053Z,959.51
2018-02-05T06:00:31.992Z,959.52
2018-02-05T06:01:31.928Z,959.51
2018-02-05T06:02:31.866Z,959.50
2018-02-05T06:03:31.804Z,959.57
2018-02-05T06:04:31.740Z,959.54
2018-02-05T06:05:31.676Z,959.52
2018-02-05T06:06:31.614Z,959.56
2018-02-05T06:07:31.551Z,959.55
2018-02-05T06:08:31.490Z,959.58
2018-02-05T06:09:31.417Z,959.59
2018-02-05T06:10:31.362Z,959.58
2018-02-05T06:11:31.295Z,959.60
2018-02-05T06:12:31.240Z,959.58
2018-02-05T06:13:31.177Z,959.59
2018-02-05T06:14:31.109Z,959.55
2018-02-05T06:15:31.045Z,959.61
2018-02-05T06:16:30.982Z,959.61
2018-02-05T06:17:30.919Z,959.62
2018-02-05T06:18:30.855Z,959.58
2018-02-05T06:19:30.793Z,959.66
2018-02-05T06:20:30.747Z,959.59
2018-02-05T06:21:30.667Z,959.69
2018-02-05T06:22:30.604Z,959.66
2018-02-05T06:23:30.582Z,959.66
2018-02-05T06:24:30.478Z,959.68
2018-02-05T06:25:30.419Z,959.63
2018-02-05T06:26:30.352Z,959.64
2018-02-05T06:27:30.287Z,959.63
2018-02-05T06:28:30.225Z,959.71
2018-02-05T06:29:30.162Z,959.65
2018-02-05T06:30:30.107Z,959.67
2018-02-05T06:31:30.036Z,959.66
2018-02-05T06:32:30.001Z,959.64
2018-02-05T06:33:29.910Z,959.64
2018-02-05T06:34:29.845Z,959.60
2018-02-05T06:35:29.784Z,959.60
2018-02-05T06:36:29.723Z,959.56
2018-02-05T06:37:29.659Z,959.55
2018-02-05T06:38:29.595Z,959.54
2018-02-05T06:39:29.531Z,959.58
2018-02-05T06:40:29.479Z,959.59
2018-02-05T06:41:29.406Z,959.63
2018-02-05T06:42:29.342Z,959.63
2018-02-05T06:43:29.292Z,959.66
2018-02-05T06:44:29.215Z,959.66
2018-02-05T06:45:29.154Z,959.72
2018-02-05T06:46:29.124Z,959.67
2018-02-05T06:47:29.029Z,959.73
2018-02-05T06:48:28.963Z,959.71
2018-02-05T06:49:28.904Z,959.78
2018-02-05T06:50:28.844Z,959.72
2018-02-05T06:51:28.775Z,959.78
2018-02-05T06:52:28.711Z,959.77
2018-02-05T06:53:28.651Z,959.76
2018-02-05T06:54:28.585Z,959.70
2018-02-05T06:55:28.523Z,959.72
2018-02-05T06:56:28.460Z,959.75
2018-02-05T06:57:28.396Z,959.74
2018-02-05T06:58:28.334Z,959.73
2018-02-05T06:59:28.278Z,959.72
2018-02-05T07:00:28.208Z,959.76
2018-02-05T07:01:28.146Z,959.82
2018-02-05T07:02:28.083Z,959.84
2018-02-05T07:03:28.018Z,959.84
2018-02-05T07:04:27.955Z,959.83
2018-02-05T07:05:27.891Z,959.81
2018-02-05T07:06:27.829Z,959.87
2018-02-05T07:07:27.768Z,959.88
2018-02-05T07:08:27.710Z,959.87
2018-02-05T07:09:27.640Z,959.91
2018-02-05T07:10:27.577Z,959.92
2018-02-05T07:11:27.514Z,959.86
2018-02-05T07:12:27.463Z,959.84
2018-02-05T07:13:27.389Z,959.83
2018-02-05T07:14:27.325Z,959.74
2018-02-05T07:15:27.266Z,959.75
2018-02-05T07:16:27.198Z,959.75
2018-02-05T07:17:27.137Z,959.79
2018-02-05T07:18:27.079Z,959.68
2018-02-05T07:19:27.009Z,959.68
2018-02-05T07:20:26.952Z,959.72
2018-02-05T07:21:26.889Z,959.64
2018-02-05T07:22:26.822Z,959.69
2018-02-05T07:23:26.760Z,959.71
2018-02-05T07:24:26.696Z,959.79
2018-02-05T07:25:26.635Z,959.79
2018-02-05T07:26:26.577Z,959.89
2018-02-05T07:27:26.549Z,959.87
2018-02-05T07:28:26.444Z,959.94
2018-02-05T07:29:26.380Z,959.96
2018-02-05T07:30:26.318Z,959.93
2018-02-05T07:31:26.254Z,960.01
2018-02-05T07:32:26.194Z,959.93
2018-02-05T07:33:26.129Z,959.88
2018-02-05T07:34:26.066Z,960.01
2018-02-05T07:35:26.008Z,959.94
2018-02-05T07:36:25.941Z,959.96
2018-02-05T07:37:25.880Z,960.01
2018-02-05T07:38:25.820Z,959.96
2018-02-05T07:39:25.750Z,960.01
2018-02-05T07:40:25.690Z,960.03
2018-02-05T07:41:25.625Z,959.95
2018-02-05T07:42:25.567Z,959.91
2018-02-05T07:43:25.499Z,960.00
2018-02-05T07:44:25.435Z,959.98
2018-02-05T07:45:25.374Z,960.01
2018-02-05T07:46:25.314Z,960.06
2018-02-05T07:47:25.252Z,960.07
2018-02-05T07:48:25.188Z,960.09
2018-02-05T07:49:25.128Z,960.00
2018-02-05T07:50:25.060Z,960.06
2018-02-05T07:51:24.997Z,960.04
2018-02-05T07:52:24.932Z,960.05
2018-02-05T07:53:24.870Z,959.93
2018-02-05T07:54:24.806Z,959.97
2018-02-05T07:55:24.742Z,959.93
2018-02-05T07:56:24.679Z,959.88
2018-02-05T07:57:24.618Z,959.89
2018-02-05T07:58:24.556Z,959.89
2018-02-05T07:59:24.491Z,959.93
2018-02-05T08:00:24.430Z,959.83
2018-02-05T08:01:24.368Z,959.83
2018-02-05T08:02:24.304Z,959.87
2018-02-05T08:03:24.242Z,959.82
2018-02-05T08:04:24.175Z,959.92
2018-02-05T08:05:24.113Z,959.76
2018-02-05T08:06:24.071Z,959.89
2018-02-05T08:07:23.987Z,959.92
2018-02-05T08:08:23.958Z,959.85
2018-02-05T08:09:23.862Z,959.97
2018-02-05T08:10:23.798Z,959.94
2018-02-05T08:11:23.793Z,959.89
2018-02-05T08:12:23.676Z,959.96
2018-02-05T08:13:23.618Z,959.92
2018-02-05T08:14:23.547Z,960.00
2018-02-05T08:15:23.490Z,960.00
2018-02-05T08:16:23.420Z,960.04
2018-02-05T08:17:23.358Z,959.95
2018-02-05T08:18:23.293Z,959.96
2018-02-05T08:19:23.231Z,959.96
2018-02-05T08:20:23.169Z,959.91
2018-02-05T08:21:23.106Z,959.89
2018-02-05T08:22:23.043Z,959.93
2018-02-05T08:23:22.980Z,959.90
2018-02-05T08:24:22.917Z,959.92
2018-02-05T08:25:22.867Z,959.91
2018-02-05T08:26:22.795Z,959.87
2018-02-05T08:27:22.726Z,959.91
2018-02-05T08:28:22.666Z,959.89
2018-02-05T08:29:22.602Z,959.98
2018-02-05T08:30:22.539Z,959.92
2018-02-05T08:31:22.476Z,959.82
2018-02-05T08:32:22.417Z,959.85
2018-02-05T08:33:22.350Z,959.81
2018-02-05T08:34:22.287Z,959.80
2018-02-05T08:35:22.226Z,959.80
2018-02-05T08:36:22.163Z,959.81
2018-02-05T08:37:22.100Z,959.81
2018-02-05T08:38:22.037Z,959.72
2018-02-05T08:39:21.976Z,959.68
2018-02-05T08:40:21.913Z,959.73
2018-02-05T08:41:21.847Z,959.66
2018-02-05T08:42:21.786Z,959.72
2018-02-05T08:43:21.754Z,959.63
2018-02-05T08:44:21.659Z,959.72
2018-02-05T08:45:21.599Z,959.64
2018-02-05T08:46:21.534Z,959.72
2018-02-05T08:47:21.472Z,959.71
2018-02-05T08:48:21.408Z,959.71
2018-02-05T08:49:21.380Z,959.62
2018-02-05T08:50:21.282Z,959.73
2018-02-05T08:51:21.223Z,959.78
2018-02-05T08:52:21.157Z,959.73
2018-02-05T08:53:21.094Z,959.74
2018-02-05T08:54:21.031Z,959.81
2018-02-05T08:55:20.969Z,959.81
2018-02-05T08:56:20.907Z,959.78
2018-02-05T08:57:20.842Z,959.83
2018-02-05T08:58:20.780Z,959.86
2018-02-05T08:59:20.717Z,959.83
2018-02-05T09:00:20.653Z,959.88
2018-02-05T09:01:20.593Z,959.80
2018-02-05T09:02:20.530Z,959.77
2018-02-05T09:03:20.466Z,959.77
2018-02-05T09:04:20.403Z,959.79
2018-02-05T09:05:20.343Z,959.81
2018-02-05T09:06:20.278Z,959.83
2018-02-05T09:07:20.214Z,959.79
2018-02-05T09:08:20.152Z,959.70
2018-02-05T09:09:20.092Z,959.80
2018-02-05T09:10:20.026Z,959.76
2018-02-05T09:11:19.964Z,959.81
2018-02-05T09:12:19.902Z,959.82
2018-02-05T09:13:19.839Z,959.85
2018-02-05T09:14:19.777Z,959.87
2018-02-05T09:15:19.712Z,959.80
2018-02-05T09:16:19.649Z,959.82
2018-02-05T09:17:19.588Z,959.81
2018-02-05T09:18:19.525Z,959.75
2018-02-05T09:19:19.462Z,959.84
2018-02-05T09:20:19.402Z,959.83
2018-02-05T09:21:19.338Z,959.82
2018-02-05T09:22:19.290Z,959.79
2018-02-05T09:23:19.216Z,959.83
2018-02-05T09:24:19.148Z,959.78
2018-02-05T09:25:19.086Z,959.78
2018-02-05T09:26:19.024Z,959.83
2018-02-05T09:27:18.963Z,959.80
2018-02-05T09:28:18.897Z,959.79
2018-02-05T09:29:18.852Z,959.80
2018-02-05T09:30:18.772Z,959.78
2018-02-05T09:31:18.709Z,959.80
2018-02-05T09:32:18.649Z,959.79
2018-02-05T09:33:18.587Z,959.77
2018-02-05T09:34:18.522Z,959.86
2018-02-05T09:35:18.460Z,959.91
2018-02-05T09:36:18.398Z,959.87
2018-02-05T09:37:18.335Z,959.92
2018-02-05T09:38:18.272Z,959.92
2018-02-05T09:39:18.208Z,959.88
2018-02-05T09:40:18.146Z,959.93
2018-02-05T09:41:18.089Z,959.96
2018-02-05T09:42:18.022Z,959.89
2018-02-05T09:43:17.959Z,959.97
2018-02-05T09:44:17.901Z,959.94
2018-02-05T09:45:17.838Z,959.96
2018-02-05T09:46:17.773Z,959.96
2018-02-05T09:47:17.712Z,960.04
2018-02-05T09:48:17.648Z,960.07
2018-02-05T09:49:17.585Z,959.93
2018-02-05T09:50:17.524Z,959.96
2018-02-05T09:51:17.463Z,959.98
2018-02-05T09:52:17.399Z,959.95
2018-02-05T09:53:17.336Z,959.92
2018-02-05T09:54:17.277Z,959.92
2018-02-05T09:55:17.210Z,959.91
2018-02-05T09:56:17.148Z,959.87
2018-02-05T09:57:17.092Z,959.95
2018-02-05T09:58:17.025Z,959.92
2018-02-05T09:59:16.973Z,959.94
2018-02-05T10:00:16.904Z,959.93
2018-02-05T10:01:16.841Z,959.96
2018-02-05T10:02:16.779Z,959.99
2018-02-05T10:03:16.718Z,959.92
2018-02-05T10:04:16.653Z,959.84
2018-02-05T10:05:16.590Z,959.88
2018-02-05T10:06:16.528Z,959.86
2018-02-05T10:07:16.465Z,959.89
2018-02-05T10:08:16.404Z,959.89
2018-02-05T10:09:16.353Z,959.96
2018-02-05T10:10:16.282Z,959.89
2018-02-05T10:11:16.219Z,959.94
2018-02-05T10:12:16.159Z,959.88
2018-02-05T10:13:16.095Z,959.91
2018-02-05T10:14:16.033Z,959.92
2018-02-05T10:15:15.973Z,959.96
2018-02-05T10:16:15.910Z,959.91
2018-02-05T10:17:15.848Z,959.89
2018-02-05T10:18:15.815Z,959.90
2018-02-05T10:19:15.724Z,959.93
2018-02-05T10:20:15.669Z,959.90
2018-02-05T10:21:15.601Z,959.89
2018-02-05T10:22:15.542Z,959.91
2018-02-05T10:23:15.477Z,959.87
2018-02-05T10:24:15.416Z,959.90
2018-02-05T10:25:15.363Z,959.90
2018-02-05T10:26:15.294Z,959.92
2018-02-05T10:27:15.231Z,959.77
2018-02-05T10:28:15.170Z,959.83
2018-02-05T10:29:15.108Z,959.77
2018-02-05T10:30:15.043Z,959.85
2018-02-05T10:31:14.989Z,959.96
2018-02-05T10:32:14.922Z,959.92
2018-02-05T10:33:14.864Z,959.92
2018-02-05T10:34:14.799Z,959.91
2018-02-05T10:35:14.740Z,959.93
2018-02-05T10:36:14.673Z,959.91
2018-02-05T10:37:14.617Z,959.85
2018-02-05T10:38:14.551Z,959.85
2018-02-05T10:39:14.489Z,959.91
2018-02-05T10:40:14.427Z,959.85
2018-02-05T10:41:14.365Z,959.84
2018-02-05T10:42:14.303Z,959.85
2018-02-05T10:43:14.247Z,959.93
2018-02-05T10:44:14.177Z,959.92
2018-02-05T10:45:14.119Z,959.82
2018-02-05T10:46:14.060Z,959.83
2018-02-05T10:47:13.994Z,959.87
2018-02-05T10:48:13.932Z,959.85
2018-02-05T10:49:13.872Z,959.82
2018-02-05T10:50:13.809Z,959.85
2018-02-05T10:51:13.746Z,959.74
2018-02-05T10:52:13.686Z,959.90
2018-02-05T10:53:13.624Z,959.94
2018-02-05T10:54:13.563Z,959.82
2018-02-05T10:55:13.509Z,959.84
2018-02-05T10:56:13.438Z,959.81
2018-02-05T10:57:13.394Z,959.88
2018-02-05T10:58:13.320Z,959.83
2018-02-05T10:59:13.254Z,959.81
2018-02-05T11:00:13.195Z,959.80
2018-02-05T11:01:13.133Z,959.83
2018-02-05T11:02:13.071Z,959.87
2018-02-05T11:03:13.008Z,959.82
2018-02-05T11:04:12.949Z,959.81
2018-02-05T11:05:12.889Z,959.82
2018-02-05T11:06:12.824Z,959.81
2018-02-05T11:07:12.763Z,959.73
2018-02-05T11:08:12.702Z,959.74
2018-02-05T11:09:12.639Z,959.68
2018-02-05T11:10:12.576Z,959.78
2018-02-05T11:11:12.517Z,959.77
2018-02-05T11:12:12.454Z,959.82
2018-02-05T11:13:12.394Z,959.83
2018-02-05T11:14:12.333Z,959.82
2018-02-05T11:15:12.271Z,959.91
2018-02-05T11:16:12.210Z,959.82
2018-02-05T11:17:12.151Z,959.86
2018-02-05T11:18:12.088Z,959.83
2018-02-05T11:19:12.026Z,959.79
2018-02-05T11:20:11.964Z,959.83
2018-02-05T11:21:11.906Z,959.78
2018-02-05T11:22:11.844Z,959.71
2018-02-05T11:23:11.785Z,959.72
2018-02-05T11:24:11.720Z,959.70
2018-02-05T11:25:11.659Z,959.72
2018-02-05T11:26:11.597Z,959.76
2018-02-05T11:27:11.540Z,959.75
2018-02-05T11:28:11.477Z,959.69
2018-02-05T11:29:11.415Z,959.75
2018-02-05T11:30:11.354Z,959.72
2018-02-05T11:31:11.291Z,959.69
2018-02-05T11:32:11.265Z,959.63
2018-02-05T11:33:11.171Z,959.69
2018-02-05T11:34:11.109Z,959.75
2018-02-05T11:35:11.050Z,959.79
2018-02-05T11:36:11.004Z,959.75
2018-02-05T11:37:10.925Z,959.75
2018-02-05T11:38:10.867Z,959.78
2018-02-05T11:39:10.804Z,959.76
2018-02-05T11:40:10.745Z,959.78
2018-02-05T11:41:10.682Z,959.81
2018-02-05T11:42:10.619Z,959.82
2018-02-05T11:43:10.557Z,959.86
2018-02-05T11:44:10.498Z,959.78
2018-02-05T11:45:10.440Z,959.79
2018-02-05T11:46:10.373Z,959.76
2018-02-05T11:47:10.315Z,959.67
2018-02-05T11:48:10.255Z,959.74
2018-02-05T11:49:10.204Z,959.78
2018-02-05T11:50:10.130Z,959.83
2018-02-05T11:51:10.070Z,959.83
2018-02-05T11:52:10.007Z,959.84
2018-02-05T11:53:09.945Z,959.85
2018-02-05T11:54:09.887Z,959.80
2018-02-05T11:55:09.824Z,959.87
2018-02-05T11:56:09.763Z,959.85
2018-02-05T11:57:09.702Z,959.86
2018-02-05T11:58:09.643Z,959.86
2018-02-05T11:59:09.579Z,959.85
2018-02-05T12:00:09.521Z,959.86
2018-02-05T12:01:09.460Z,959.89
2018-02-05T12:02:09.404Z,959.84
2018-02-05T12:03:09.338Z,959.89
2018-02-05T12:04:09.281Z,959.92
2018-02-05T12:05:09.217Z,959.90
2018-02-05T12:06:09.157Z,959.90
2018-02-05T12:07:09.093Z,959.87
2018-02-05T12:08:09.033Z,959.87
2018-02-05T12:09:08.972Z,959.91
2018-02-05T12:10:08.915Z,959.88
2018-02-05T12:11:08.849Z,959.92
2018-02-05T12:12:08.791Z,959.95
2018-02-05T12:13:08.730Z,959.97
2018-02-05T12:14:08.669Z,959.97
2018-02-05T12:15:08.610Z,959.99
2018-02-05T12:16:08.554Z,959.96
2018-02-05T12:17:08.485Z,959.97
2018-02-05T12:18:08.428Z,959.94
2018-02-05T12:19:08.364Z,959.91
2018-02-05T12:20:08.311Z,959.95
2018-02-05T12:21:08.245Z,959.88
2018-02-05T12:22:08.216Z,959.86
2018-02-05T12:23:08.122Z,959.88
2018-02-05T12:24:08.061Z,959.93
2018-02-05T12:25:08.002Z,959.92
2018-02-05T12:26:07.948Z,959.89
2018-02-05T12:27:07.881Z,959.89
2018-02-05T12:28:07.822Z,959.89